sensor_id;sensor_type;location;lat;lon;timestamp;P1;durP1;ratioP1;P2;durP2;ratioP2
40659;SDS011;26753;45.544;9.232;2022-10-31T00:00:49;17.23;;;8.52;;
40659;SDS011;26753;45.544;9.232;2022-10-31T00:03:16;17.98;;;9.13;;
40659;SDS011;26753;45.544;9.232;2022-10-31T00:05:46;17.73;;;8.80;;
40659;SDS011;26753;45.544;9.232;2022-10-31T00:08:13;14.85;;;9.05;;
40659;SDS011;26753;45.544;9.232;2022-10-31T00:10:39;20.48;;;10.02;;
40659;SDS011;26753;45.544;9.232;2022-10-31T00:13:06;16.15;;;8.63;;
40659;SDS011;26753;45.544;9.232;2022-10-31T00:15:33;19.63;;;8.80;;
40659;SDS011;26753;45.544;9.232;2022-10-31T00:17:59;16.17;;;8.48;;
40659;SDS011;26753;45.544;9.232;2022-10-31T00:20:25;20.83;;;9.48;;
40659;SDS011;26753;45.544;9.232;2022-10-31T00:22:50;18.05;;;8.65;;
40659;SDS011;26753;45.544;9.232;2022-10-31T00:25:16;16.38;;;8.75;;
40659;SDS011;26753;45.544;9.232;2022-10-31T00:27:42;19.90;;;8.75;;
40659;SDS011;26753;45.544;9.232;2022-10-31T00:30:07;19.30;;;8.77;;
40659;SDS011;26753;45.544;9.232;2022-10-31T00:32:33;19.70;;;9.50;;
40659;SDS011;26753;45.544;9.232;2022-10-31T00:34:59;15.90;;;9.25;;
40659;SDS011;26753;45.544;9.232;2022-10-31T00:37:25;17.90;;;9.38;;
40659;SDS011;26753;45.544;9.232;2022-10-31T00:39:51;18.48;;;9.98;;
40659;SDS011;26753;45.544;9.232;2022-10-31T00:42:17;18.90;;;10.07;;
40659;SDS011;26753;45.544;9.232;2022-10-31T00:44:42;17.45;;;8.82;;
40659;SDS011;26753;45.544;9.232;2022-10-31T00:47:08;27.52;;;9.35;;
40659;SDS011;26753;45.544;9.232;2022-10-31T00:49:34;19.08;;;9.65;;
40659;SDS011;26753;45.544;9.232;2022-10-31T00:51:59;19.38;;;8.73;;
40659;SDS011;26753;45.544;9.232;2022-10-31T00:54:25;15.32;;;8.73;;
40659;SDS011;26753;45.544;9.232;2022-10-31T00:56:50;16.30;;;8.20;;
40659;SDS011;26753;45.544;9.232;2022-10-31T00:59:16;16.77;;;8.60;;
40659;SDS011;26753;45.544;9.232;2022-10-31T01:01:42;13.77;;;7.85;;
40659;SDS011;26753;45.544;9.232;2022-10-31T01:04:07;17.70;;;8.40;;
40659;SDS011;26753;45.544;9.232;2022-10-31T01:06:33;17.70;;;8.32;;
40659;SDS011;26753;45.544;9.232;2022-10-31T01:08:58;18.50;;;8.68;;
40659;SDS011;26753;45.544;9.232;2022-10-31T01:11:24;15.90;;;8.20;;
40659;SDS011;26753;45.544;9.232;2022-10-31T01:13:51;20.17;;;8.25;;
40659;SDS011;26753;45.544;9.232;2022-10-31T01:16:18;17.20;;;8.35;;
40659;SDS011;26753;45.544;9.232;2022-10-31T01:18:46;17.95;;;8.00;;
40659;SDS011;26753;45.544;9.232;2022-10-31T01:21:19;16.00;;;7.90;;
40659;SDS011;26753;45.544;9.232;2022-10-31T01:23:46;14.27;;;8.18;;
40659;SDS011;26753;45.544;9.232;2022-10-31T01:28:45;18.58;;;9.68;;
40659;SDS011;26753;45.544;9.232;2022-10-31T01:31:19;23.00;;;9.90;;
40659;SDS011;26753;45.544;9.232;2022-10-31T01:33:46;16.27;;;8.43;;
40659;SDS011;26753;45.544;9.232;2022-10-31T01:36:23;17.23;;;8.48;;
40659;SDS011;26753;45.544;9.232;2022-10-31T01:38:51;17.77;;;9.13;;
40659;SDS011;26753;45.544;9.232;2022-10-31T01:41:19;16.85;;;8.93;;
40659;SDS011;26753;45.544;9.232;2022-10-31T01:43:58;18.02;;;8.77;;
40659;SDS011;26753;45.544;9.232;2022-10-31T01:46:31;16.95;;;8.27;;
40659;SDS011;26753;45.544;9.232;2022-10-31T01:49:02;19.52;;;8.65;;
40659;SDS011;26753;45.544;9.232;2022-10-31T01:51:31;16.98;;;8.25;;
40659;SDS011;26753;45.544;9.232;2022-10-31T01:54:01;16.83;;;8.23;;
40659;SDS011;26753;45.544;9.232;2022-10-31T01:56:30;15.48;;;8.05;;
40659;SDS011;26753;45.544;9.232;2022-10-31T01:58:59;16.70;;;8.20;;
40659;SDS011;26753;45.544;9.232;2022-10-31T02:01:26;19.48;;;7.90;;
40659;SDS011;26753;45.544;9.232;2022-10-31T02:03:53;17.00;;;9.18;;
40659;SDS011;26753;45.544;9.232;2022-10-31T02:06:28;17.70;;;9.23;;
40659;SDS011;26753;45.544;9.232;2022-10-31T02:09:05;18.20;;;8.70;;
40659;SDS011;26753;45.544;9.232;2022-10-31T02:11:31;16.10;;;8.30;;
40659;SDS011;26753;45.544;9.232;2022-10-31T02:13:59;17.45;;;8.38;;
40659;SDS011;26753;45.544;9.232;2022-10-31T02:16:26;16.65;;;7.65;;
40659;SDS011;26753;45.544;9.232;2022-10-31T02:18:52;13.40;;;7.07;;
40659;SDS011;26753;45.544;9.232;2022-10-31T02:21:37;15.50;;;7.28;;
40659;SDS011;26753;45.544;9.232;2022-10-31T02:27:12;21.05;;;6.72;;
40659;SDS011;26753;45.544;9.232;2022-10-31T02:33:01;13.77;;;6.28;;
40659;SDS011;26753;45.544;9.232;2022-10-31T02:40:23;15.98;;;6.25;;
40659;SDS011;26753;45.544;9.232;2022-10-31T02:42:59;13.13;;;6.50;;
40659;SDS011;26753;45.544;9.232;2022-10-31T02:45:42;13.55;;;5.85;;
40659;SDS011;26753;45.544;9.232;2022-10-31T02:48:18;13.23;;;6.10;;
40659;SDS011;26753;45.544;9.232;2022-10-31T02:51:06;15.20;;;5.97;;
40659;SDS011;26753;45.544;9.232;2022-10-31T02:53:34;13.38;;;6.25;;
40659;SDS011;26753;45.544;9.232;2022-10-31T02:56:02;16.35;;;6.90;;
40659;SDS011;26753;45.544;9.232;2022-10-31T02:58:33;13.75;;;7.40;;
40659;SDS011;26753;45.544;9.232;2022-10-31T03:09:11;14.02;;;6.88;;
40659;SDS011;26753;45.544;9.232;2022-10-31T03:14:36;15.85;;;6.18;;
40659;SDS011;26753;45.544;9.232;2022-10-31T03:17:09;14.05;;;5.50;;
40659;SDS011;26753;45.544;9.232;2022-10-31T03:19:45;12.93;;;5.07;;
40659;SDS011;26753;45.544;9.232;2022-10-31T03:22:19;15.35;;;5.20;;
40659;SDS011;26753;45.544;9.232;2022-10-31T03:24:51;13.32;;;5.03;;
40659;SDS011;26753;45.544;9.232;2022-10-31T03:27:20;11.77;;;4.88;;
40659;SDS011;26753;45.544;9.232;2022-10-31T03:29:49;12.32;;;4.90;;
40659;SDS011;26753;45.544;9.232;2022-10-31T03:32:19;13.30;;;5.20;;
40659;SDS011;26753;45.544;9.232;2022-10-31T03:34:53;13.10;;;4.90;;
40659;SDS011;26753;45.544;9.232;2022-10-31T03:37:22;14.85;;;5.20;;
40659;SDS011;26753;45.544;9.232;2022-10-31T03:39:50;11.35;;;4.90;;
40659;SDS011;26753;45.544;9.232;2022-10-31T03:42:20;16.33;;;5.43;;
40659;SDS011;26753;45.544;9.232;2022-10-31T03:44:53;11.07;;;5.03;;
40659;SDS011;26753;45.544;9.232;2022-10-31T03:47:30;13.15;;;4.60;;
40659;SDS011;26753;45.544;9.232;2022-10-31T03:49:57;12.77;;;4.70;;
40659;SDS011;26753;45.544;9.232;2022-10-31T03:52:27;19.45;;;5.70;;
40659;SDS011;26753;45.544;9.232;2022-10-31T03:57:48;14.02;;;4.90;;
40659;SDS011;26753;45.544;9.232;2022-10-31T04:00:20;12.80;;;5.00;;
40659;SDS011;26753;45.544;9.232;2022-10-31T04:02:53;14.88;;;5.13;;
40659;SDS011;26753;45.544;9.232;2022-10-31T04:05:42;9.05;;;4.25;;
40659;SDS011;26753;45.544;9.232;2022-10-31T04:08:17;12.37;;;4.13;;
40659;SDS011;26753;45.544;9.232;2022-10-31T04:10:47;15.03;;;4.63;;
40659;SDS011;26753;45.544;9.232;2022-10-31T04:13:16;9.63;;;4.40;;
40659;SDS011;26753;45.544;9.232;2022-10-31T04:15:45;9.43;;;4.10;;
40659;SDS011;26753;45.544;9.232;2022-10-31T04:18:12;12.43;;;4.40;;
40659;SDS011;26753;45.544;9.232;2022-10-31T04:20:39;11.18;;;4.57;;
40659;SDS011;26753;45.544;9.232;2022-10-31T04:23:15;14.10;;;4.35;;
40659;SDS011;26753;45.544;9.232;2022-10-31T04:25:45;12.02;;;4.53;;
40659;SDS011;26753;45.544;9.232;2022-10-31T04:28:11;9.70;;;3.97;;
40659;SDS011;26753;45.544;9.232;2022-10-31T04:30:36;11.30;;;4.55;;
40659;SDS011;26753;45.544;9.232;2022-10-31T04:33:02;10.60;;;4.15;;
40659;SDS011;26753;45.544;9.232;2022-10-31T04:35:28;11.40;;;4.35;;
40659;SDS011;26753;45.544;9.232;2022-10-31T04:37:53;13.15;;;4.53;;
40659;SDS011;26753;45.544;9.232;2022-10-31T04:40:19;10.15;;;4.32;;
40659;SDS011;26753;45.544;9.232;2022-10-31T04:42:45;13.20;;;4.28;;
40659;SDS011;26753;45.544;9.232;2022-10-31T04:45:10;11.48;;;4.43;;
40659;SDS011;26753;45.544;9.232;2022-10-31T04:47:36;11.45;;;4.35;;
40659;SDS011;26753;45.544;9.232;2022-10-31T04:50:02;11.85;;;4.60;;
40659;SDS011;26753;45.544;9.232;2022-10-31T04:52:28;13.43;;;4.28;;
40659;SDS011;26753;45.544;9.232;2022-10-31T04:54:53;13.80;;;4.18;;
40659;SDS011;26753;45.544;9.232;2022-10-31T04:57:19;11.05;;;4.53;;
40659;SDS011;26753;45.544;9.232;2022-10-31T04:59:45;14.35;;;5.78;;
40659;SDS011;26753;45.544;9.232;2022-10-31T05:02:10;11.15;;;4.53;;
40659;SDS011;26753;45.544;9.232;2022-10-31T05:04:36;11.10;;;4.78;;
40659;SDS011;26753;45.544;9.232;2022-10-31T05:07:01;16.08;;;5.20;;
40659;SDS011;26753;45.544;9.232;2022-10-31T05:09:27;11.77;;;5.20;;
40659;SDS011;26753;45.544;9.232;2022-10-31T05:11:53;13.27;;;4.90;;
40659;SDS011;26753;45.544;9.232;2022-10-31T05:14:18;12.63;;;5.75;;
40659;SDS011;26753;45.544;9.232;2022-10-31T05:16:44;14.70;;;5.10;;
40659;SDS011;26753;45.544;9.232;2022-10-31T05:19:10;15.60;;;5.50;;
40659;SDS011;26753;45.544;9.232;2022-10-31T05:21:36;14.43;;;4.93;;
40659;SDS011;26753;45.544;9.232;2022-10-31T05:24:01;13.52;;;5.35;;
40659;SDS011;26753;45.544;9.232;2022-10-31T05:26:27;14.27;;;5.15;;
40659;SDS011;26753;45.544;9.232;2022-10-31T05:28:53;13.88;;;4.88;;
40659;SDS011;26753;45.544;9.232;2022-10-31T05:31:19;13.63;;;5.03;;
40659;SDS011;26753;45.544;9.232;2022-10-31T05:33:44;11.18;;;4.75;;
40659;SDS011;26753;45.544;9.232;2022-10-31T05:36:10;10.63;;;5.10;;
40659;SDS011;26753;45.544;9.232;2022-10-31T05:38:35;17.80;;;5.57;;
40659;SDS011;26753;45.544;9.232;2022-10-31T05:41:01;13.73;;;5.30;;
40659;SDS011;26753;45.544;9.232;2022-10-31T05:43:27;14.10;;;5.30;;
40659;SDS011;26753;45.544;9.232;2022-10-31T05:45:54;13.32;;;5.28;;
40659;SDS011;26753;45.544;9.232;2022-10-31T05:48:20;13.55;;;5.72;;
40659;SDS011;26753;45.544;9.232;2022-10-31T05:50:47;15.43;;;5.22;;
40659;SDS011;26753;45.544;9.232;2022-10-31T05:53:13;13.48;;;4.95;;
40659;SDS011;26753;45.544;9.232;2022-10-31T05:55:39;12.90;;;4.70;;
40659;SDS011;26753;45.544;9.232;2022-10-31T05:58:05;10.65;;;4.50;;
40659;SDS011;26753;45.544;9.232;2022-10-31T06:00:32;12.10;;;4.80;;
40659;SDS011;26753;45.544;9.232;2022-10-31T06:03:00;14.43;;;5.13;;
40659;SDS011;26753;45.544;9.232;2022-10-31T06:05:28;13.75;;;5.18;;
40659;SDS011;26753;45.544;9.232;2022-10-31T06:07:55;13.43;;;5.10;;
40659;SDS011;26753;45.544;9.232;2022-10-31T06:10:21;15.88;;;5.85;;
40659;SDS011;26753;45.544;9.232;2022-10-31T06:12:47;13.57;;;5.35;;
40659;SDS011;26753;45.544;9.232;2022-10-31T06:15:13;12.60;;;4.93;;
40659;SDS011;26753;45.544;9.232;2022-10-31T06:17:39;15.52;;;5.18;;
40659;SDS011;26753;45.544;9.232;2022-10-31T06:20:05;14.48;;;5.30;;
40659;SDS011;26753;45.544;9.232;2022-10-31T06:22:31;13.85;;;5.55;;
40659;SDS011;26753;45.544;9.232;2022-10-31T06:24:57;13.88;;;4.88;;
40659;SDS011;26753;45.544;9.232;2022-10-31T06:27:23;13.18;;;5.20;;
40659;SDS011;26753;45.544;9.232;2022-10-31T06:29:49;16.58;;;4.93;;
40659;SDS011;26753;45.544;9.232;2022-10-31T06:32:15;11.27;;;4.97;;
40659;SDS011;26753;45.544;9.232;2022-10-31T06:34:41;14.65;;;5.05;;
40659;SDS011;26753;45.544;9.232;2022-10-31T06:37:07;15.48;;;5.57;;
40659;SDS011;26753;45.544;9.232;2022-10-31T06:39:34;16.52;;;5.22;;
40659;SDS011;26753;45.544;9.232;2022-10-31T06:42:00;17.90;;;5.75;;
40659;SDS011;26753;45.544;9.232;2022-10-31T06:44:26;17.85;;;5.60;;
40659;SDS011;26753;45.544;9.232;2022-10-31T06:46:52;14.00;;;4.95;;
40659;SDS011;26753;45.544;9.232;2022-10-31T06:49:17;15.55;;;5.60;;
40659;SDS011;26753;45.544;9.232;2022-10-31T06:51:43;13.55;;;5.63;;
40659;SDS011;26753;45.544;9.232;2022-10-31T06:54:12;17.42;;;6.40;;
40659;SDS011;26753;45.544;9.232;2022-10-31T06:56:38;15.15;;;5.85;;
40659;SDS011;26753;45.544;9.232;2022-10-31T06:59:04;18.05;;;5.35;;
40659;SDS011;26753;45.544;9.232;2022-10-31T07:01:30;17.98;;;6.18;;
40659;SDS011;26753;45.544;9.232;2022-10-31T07:03:55;14.50;;;5.70;;
40659;SDS011;26753;45.544;9.232;2022-10-31T07:06:21;14.18;;;5.70;;
40659;SDS011;26753;45.544;9.232;2022-10-31T07:08:47;17.35;;;5.35;;
40659;SDS011;26753;45.544;9.232;2022-10-31T07:11:12;14.95;;;6.03;;
40659;SDS011;26753;45.544;9.232;2022-10-31T07:13:38;15.75;;;5.50;;
40659;SDS011;26753;45.544;9.232;2022-10-31T07:16:05;16.17;;;5.85;;
40659;SDS011;26753;45.544;9.232;2022-10-31T07:18:36;13.57;;;5.47;;
40659;SDS011;26753;45.544;9.232;2022-10-31T07:21:02;15.85;;;5.95;;
40659;SDS011;26753;45.544;9.232;2022-10-31T07:23:29;13.25;;;5.57;;
40659;SDS011;26753;45.544;9.232;2022-10-31T07:25:58;13.88;;;5.78;;
40659;SDS011;26753;45.544;9.232;2022-10-31T07:28:25;17.02;;;5.57;;
40659;SDS011;26753;45.544;9.232;2022-10-31T07:30:52;17.60;;;6.13;;
40659;SDS011;26753;45.544;9.232;2022-10-31T07:33:19;13.07;;;5.97;;
40659;SDS011;26753;45.544;9.232;2022-10-31T07:35:46;17.70;;;7.68;;
40659;SDS011;26753;45.544;9.232;2022-10-31T07:38:12;21.23;;;9.45;;
40659;SDS011;26753;45.544;9.232;2022-10-31T07:41:00;17.17;;;7.05;;
40659;SDS011;26753;45.544;9.232;2022-10-31T07:43:25;17.48;;;7.45;;
40659;SDS011;26753;45.544;9.232;2022-10-31T07:45:51;17.98;;;6.82;;
40659;SDS011;26753;45.544;9.232;2022-10-31T07:48:17;21.05;;;7.00;;
40659;SDS011;26753;45.544;9.232;2022-10-31T07:50:44;19.90;;;7.50;;
40659;SDS011;26753;45.544;9.232;2022-10-31T07:53:10;17.88;;;7.68;;
40659;SDS011;26753;45.544;9.232;2022-10-31T07:55:37;17.25;;;6.93;;
40659;SDS011;26753;45.544;9.232;2022-10-31T07:58:04;19.52;;;7.25;;
40659;SDS011;26753;45.544;9.232;2022-10-31T08:00:32;17.45;;;7.18;;
40659;SDS011;26753;45.544;9.232;2022-10-31T08:05:32;14.30;;;6.82;;
40659;SDS011;26753;45.544;9.232;2022-10-31T08:07:59;19.02;;;8.00;;
40659;SDS011;26753;45.544;9.232;2022-10-31T08:10:25;18.55;;;7.72;;
40659;SDS011;26753;45.544;9.232;2022-10-31T08:12:58;18.55;;;7.60;;
40659;SDS011;26753;45.544;9.232;2022-10-31T08:15:25;17.88;;;7.80;;
40659;SDS011;26753;45.544;9.232;2022-10-31T08:17:51;13.48;;;6.80;;
40659;SDS011;26753;45.544;9.232;2022-10-31T08:20:17;17.45;;;7.45;;
40659;SDS011;26753;45.544;9.232;2022-10-31T08:22:43;21.80;;;7.18;;
40659;SDS011;26753;45.544;9.232;2022-10-31T08:25:17;19.52;;;7.50;;
40659;SDS011;26753;45.544;9.232;2022-10-31T08:27:42;21.50;;;10.02;;
40659;SDS011;26753;45.544;9.232;2022-10-31T08:30:13;18.95;;;8.20;;
40659;SDS011;26753;45.544;9.232;2022-10-31T08:32:38;19.77;;;8.10;;
40659;SDS011;26753;45.544;9.232;2022-10-31T08:35:04;16.55;;;9.10;;
40659;SDS011;26753;45.544;9.232;2022-10-31T08:37:30;27.15;;;8.30;;
40659;SDS011;26753;45.544;9.232;2022-10-31T08:39:55;17.35;;;7.47;;
40659;SDS011;26753;45.544;9.232;2022-10-31T08:42:21;16.77;;;7.68;;
40659;SDS011;26753;45.544;9.232;2022-10-31T08:44:47;16.25;;;7.07;;
40659;SDS011;26753;45.544;9.232;2022-10-31T08:47:13;18.85;;;6.75;;
40659;SDS011;26753;45.544;9.232;2022-10-31T08:49:38;21.38;;;7.70;;
40659;SDS011;26753;45.544;9.232;2022-10-31T08:52:04;19.08;;;7.40;;
40659;SDS011;26753;45.544;9.232;2022-10-31T08:54:30;14.20;;;7.03;;
40659;SDS011;26753;45.544;9.232;2022-10-31T08:56:55;20.48;;;7.68;;
40659;SDS011;26753;45.544;9.232;2022-10-31T08:59:21;19.77;;;7.70;;
40659;SDS011;26753;45.544;9.232;2022-10-31T09:01:47;15.13;;;7.70;;
40659;SDS011;26753;45.544;9.232;2022-10-31T09:04:12;21.08;;;7.63;;
40659;SDS011;26753;45.544;9.232;2022-10-31T09:06:38;20.85;;;8.35;;
40659;SDS011;26753;45.544;9.232;2022-10-31T09:09:04;19.42;;;7.88;;
40659;SDS011;26753;45.544;9.232;2022-10-31T09:11:30;20.92;;;7.63;;
40659;SDS011;26753;45.544;9.232;2022-10-31T09:13:56;19.75;;;8.23;;
40659;SDS011;26753;45.544;9.232;2022-10-31T09:16:21;15.52;;;8.05;;
40659;SDS011;26753;45.544;9.232;2022-10-31T09:18:47;21.80;;;8.38;;
40659;SDS011;26753;45.544;9.232;2022-10-31T09:21:13;20.17;;;8.73;;
40659;SDS011;26753;45.544;9.232;2022-10-31T09:23:38;20.48;;;8.48;;
40659;SDS011;26753;45.544;9.232;2022-10-31T09:26:04;20.05;;;8.77;;
40659;SDS011;26753;45.544;9.232;2022-10-31T09:28:31;24.85;;;8.57;;
40659;SDS011;26753;45.544;9.232;2022-10-31T09:30:57;21.92;;;8.57;;
40659;SDS011;26753;45.544;9.232;2022-10-31T09:33:23;21.38;;;8.50;;
40659;SDS011;26753;45.544;9.232;2022-10-31T09:35:48;17.90;;;7.82;;
40659;SDS011;26753;45.544;9.232;2022-10-31T09:38:16;20.63;;;8.23;;
40659;SDS011;26753;45.544;9.232;2022-10-31T09:44:05;19.25;;;8.35;;
40659;SDS011;26753;45.544;9.232;2022-10-31T09:46:43;20.05;;;7.30;;
40659;SDS011;26753;45.544;9.232;2022-10-31T09:52:13;18.73;;;8.30;;
40659;SDS011;26753;45.544;9.232;2022-10-31T09:54:52;19.92;;;7.97;;
40659;SDS011;26753;45.544;9.232;2022-10-31T09:57:19;19.65;;;8.10;;
40659;SDS011;26753;45.544;9.232;2022-10-31T09:59:51;18.95;;;7.90;;
40659;SDS011;26753;45.544;9.232;2022-10-31T10:10:13;20.17;;;8.20;;
40659;SDS011;26753;45.544;9.232;2022-10-31T10:18:30;29.50;;;8.00;;
40659;SDS011;26753;45.544;9.232;2022-10-31T10:26:35;26.38;;;8.32;;
40659;SDS011;26753;45.544;9.232;2022-10-31T10:29:37;23.08;;;8.15;;
40659;SDS011;26753;45.544;9.232;2022-10-31T10:32:05;16.13;;;7.18;;
40659;SDS011;26753;45.544;9.232;2022-10-31T10:34:45;17.50;;;7.67;;
40659;SDS011;26753;45.544;9.232;2022-10-31T10:37:32;19.92;;;7.63;;
40659;SDS011;26753;45.544;9.232;2022-10-31T10:40:07;20.73;;;8.88;;
40659;SDS011;26753;45.544;9.232;2022-10-31T10:43:18;15.68;;;7.25;;
40659;SDS011;26753;45.544;9.232;2022-10-31T10:49:04;19.67;;;8.70;;
40659;SDS011;26753;45.544;9.232;2022-10-31T10:54:35;20.25;;;10.32;;
40659;SDS011;26753;45.544;9.232;2022-10-31T11:00:25;22.05;;;9.27;;
40659;SDS011;26753;45.544;9.232;2022-10-31T11:03:03;29.92;;;10.15;;
40659;SDS011;26753;45.544;9.232;2022-10-31T11:08:24;22.30;;;9.55;;
40659;SDS011;26753;45.544;9.232;2022-10-31T11:11:01;28.05;;;11.43;;
40659;SDS011;26753;45.544;9.232;2022-10-31T11:13:39;29.60;;;12.48;;
40659;SDS011;26753;45.544;9.232;2022-10-31T11:16:08;26.73;;;14.15;;
40659;SDS011;26753;45.544;9.232;2022-10-31T11:18:39;27.95;;;15.45;;
40659;SDS011;26753;45.544;9.232;2022-10-31T11:21:19;21.55;;;12.30;;
40659;SDS011;26753;45.544;9.232;2022-10-31T11:24:01;24.33;;;12.45;;
40659;SDS011;26753;45.544;9.232;2022-10-31T11:26:27;29.27;;;13.60;;
40659;SDS011;26753;45.544;9.232;2022-10-31T11:28:56;26.70;;;11.57;;
40659;SDS011;26753;45.544;9.232;2022-10-31T11:31:23;25.25;;;12.77;;
40659;SDS011;26753;45.544;9.232;2022-10-31T11:33:55;28.95;;;13.93;;
40659;SDS011;26753;45.544;9.232;2022-10-31T11:36:32;26.52;;;14.48;;
40659;SDS011;26753;45.544;9.232;2022-10-31T11:39:02;28.55;;;14.48;;
40659;SDS011;26753;45.544;9.232;2022-10-31T11:41:34;33.83;;;15.93;;
40659;SDS011;26753;45.544;9.232;2022-10-31T11:46:48;36.03;;;15.10;;
40659;SDS011;26753;45.544;9.232;2022-10-31T11:54:46;25.05;;;12.82;;
40659;SDS011;26753;45.544;9.232;2022-10-31T11:57:29;27.38;;;12.43;;
40659;SDS011;26753;45.544;9.232;2022-10-31T12:02:28;22.65;;;11.57;;
40659;SDS011;26753;45.544;9.232;2022-10-31T12:07:45;23.75;;;11.82;;
40659;SDS011;26753;45.544;9.232;2022-10-31T12:10:11;19.73;;;10.80;;
40659;SDS011;26753;45.544;9.232;2022-10-31T12:12:41;22.60;;;11.18;;
40659;SDS011;26753;45.544;9.232;2022-10-31T12:15:26;23.52;;;11.10;;
40659;SDS011;26753;45.544;9.232;2022-10-31T12:26:30;21.40;;;9.00;;
40659;SDS011;26753;45.544;9.232;2022-10-31T12:29:28;21.50;;;8.93;;
40659;SDS011;26753;45.544;9.232;2022-10-31T12:38:05;16.35;;;8.30;;
40659;SDS011;26753;45.544;9.232;2022-10-31T12:43:34;16.33;;;7.93;;
40659;SDS011;26753;45.544;9.232;2022-10-31T12:46:22;17.08;;;7.68;;
40659;SDS011;26753;45.544;9.232;2022-10-31T12:56:45;14.95;;;7.47;;
40659;SDS011;26753;45.544;9.232;2022-10-31T13:04:51;13.93;;;7.32;;
40659;SDS011;26753;45.544;9.232;2022-10-31T13:07:25;16.80;;;7.45;;
40659;SDS011;26753;45.544;9.232;2022-10-31T13:12:42;15.45;;;7.30;;
40659;SDS011;26753;45.544;9.232;2022-10-31T13:18:51;15.65;;;7.35;;
40659;SDS011;26753;45.544;9.232;2022-10-31T13:21:25;16.85;;;6.53;;
40659;SDS011;26753;45.544;9.232;2022-10-31T13:23:56;15.90;;;6.60;;
40659;SDS011;26753;45.544;9.232;2022-10-31T13:31:53;13.25;;;6.25;;
40659;SDS011;26753;45.544;9.232;2022-10-31T13:34:27;14.18;;;5.85;;
40659;SDS011;26753;45.544;9.232;2022-10-31T13:42:35;13.25;;;4.95;;
40659;SDS011;26753;45.544;9.232;2022-10-31T13:48:19;18.65;;;6.07;;
40659;SDS011;26753;45.544;9.232;2022-10-31T13:50:58;11.60;;;5.70;;
40659;SDS011;26753;45.544;9.232;2022-10-31T13:53:40;15.80;;;6.00;;
40659;SDS011;26753;45.544;9.232;2022-10-31T13:56:23;11.40;;;5.28;;
40659;SDS011;26753;45.544;9.232;2022-10-31T14:01:58;10.95;;;4.82;;
40659;SDS011;26753;45.544;9.232;2022-10-31T14:04:38;10.98;;;5.15;;
40659;SDS011;26753;45.544;9.232;2022-10-31T14:07:13;11.35;;;5.43;;
40659;SDS011;26753;45.544;9.232;2022-10-31T14:20:22;11.65;;;4.35;;
40659;SDS011;26753;45.544;9.232;2022-10-31T14:22:58;14.15;;;6.10;;
40659;SDS011;26753;45.544;9.232;2022-10-31T14:25:28;11.68;;;4.45;;
40659;SDS011;26753;45.544;9.232;2022-10-31T14:28:00;12.43;;;5.00;;
40659;SDS011;26753;45.544;9.232;2022-10-31T14:30:28;11.45;;;4.40;;
40659;SDS011;26753;45.544;9.232;2022-10-31T14:33:02;12.02;;;4.47;;
40659;SDS011;26753;45.544;9.232;2022-10-31T14:35:56;16.58;;;4.78;;
40659;SDS011;26753;45.544;9.232;2022-10-31T14:38:41;12.93;;;4.95;;
40659;SDS011;26753;45.544;9.232;2022-10-31T14:41:31;10.93;;;4.40;;
40659;SDS011;26753;45.544;9.232;2022-10-31T14:53:13;11.77;;;5.25;;
40659;SDS011;26753;45.544;9.232;2022-10-31T14:55:45;14.60;;;5.57;;
40659;SDS011;26753;45.544;9.232;2022-10-31T14:58:15;13.43;;;5.88;;
40659;SDS011;26753;45.544;9.232;2022-10-31T15:00:46;19.77;;;6.25;;
40659;SDS011;26753;45.544;9.232;2022-10-31T15:03:16;14.48;;;6.03;;
40659;SDS011;26753;45.544;9.232;2022-10-31T15:05:55;16.50;;;6.57;;
40659;SDS011;26753;45.544;9.232;2022-10-31T15:08:32;18.75;;;6.95;;
40659;SDS011;26753;45.544;9.232;2022-10-31T15:11:11;17.95;;;6.68;;
40659;SDS011;26753;45.544;9.232;2022-10-31T15:13:45;21.10;;;8.65;;
40659;SDS011;26753;45.544;9.232;2022-10-31T15:16:16;21.58;;;6.88;;
40659;SDS011;26753;45.544;9.232;2022-10-31T15:19:04;13.15;;;6.20;;
40659;SDS011;26753;45.544;9.232;2022-10-31T15:21:39;14.48;;;5.43;;
40659;SDS011;26753;45.544;9.232;2022-10-31T15:24:10;20.60;;;7.90;;
40659;SDS011;26753;45.544;9.232;2022-10-31T15:26:38;17.92;;;6.03;;
40659;SDS011;26753;45.544;9.232;2022-10-31T15:29:11;20.02;;;7.03;;
40659;SDS011;26753;45.544;9.232;2022-10-31T15:31:38;15.20;;;7.05;;
40659;SDS011;26753;45.544;9.232;2022-10-31T15:34:15;19.85;;;9.50;;
40659;SDS011;26753;45.544;9.232;2022-10-31T15:36:47;17.25;;;6.45;;
40659;SDS011;26753;45.544;9.232;2022-10-31T15:39:15;23.77;;;7.30;;
40659;SDS011;26753;45.544;9.232;2022-10-31T15:41:49;15.85;;;6.57;;
40659;SDS011;26753;45.544;9.232;2022-10-31T15:44:19;17.65;;;6.40;;
40659;SDS011;26753;45.544;9.232;2022-10-31T15:46:55;13.55;;;5.10;;
40659;SDS011;26753;45.544;9.232;2022-10-31T15:49:47;20.33;;;7.18;;
40659;SDS011;26753;45.544;9.232;2022-10-31T15:54:57;24.85;;;7.88;;
40659;SDS011;26753;45.544;9.232;2022-10-31T15:57:28;27.05;;;8.30;;
40659;SDS011;26753;45.544;9.232;2022-10-31T15:59:55;19.88;;;7.95;;
40659;SDS011;26753;45.544;9.232;2022-10-31T16:02:27;18.88;;;7.03;;
40659;SDS011;26753;45.544;9.232;2022-10-31T16:04:57;24.00;;;11.68;;
40659;SDS011;26753;45.544;9.232;2022-10-31T16:07:26;39.15;;;19.38;;
40659;SDS011;26753;45.544;9.232;2022-10-31T16:09:54;26.70;;;11.70;;
40659;SDS011;26753;45.544;9.232;2022-10-31T16:12:37;23.10;;;9.20;;
40659;SDS011;26753;45.544;9.232;2022-10-31T16:15:14;24.40;;;11.88;;
40659;SDS011;26753;45.544;9.232;2022-10-31T16:17:42;21.75;;;11.85;;
40659;SDS011;26753;45.544;9.232;2022-10-31T16:20:23;28.85;;;10.30;;
40659;SDS011;26753;45.544;9.232;2022-10-31T16:23:05;29.63;;;14.18;;
40659;SDS011;26753;45.544;9.232;2022-10-31T16:26:17;31.67;;;16.42;;
40659;SDS011;26753;45.544;9.232;2022-10-31T16:28:24;44.78;;;20.50;;
40659;SDS011;26753;45.544;9.232;2022-10-31T16:30:53;33.20;;;19.52;;
40659;SDS011;26753;45.544;9.232;2022-10-31T16:33:27;34.10;;;12.18;;
40659;SDS011;26753;45.544;9.232;2022-10-31T16:35:58;23.38;;;9.73;;
40659;SDS011;26753;45.544;9.232;2022-10-31T16:38:27;20.92;;;9.48;;
40659;SDS011;26753;45.544;9.232;2022-10-31T16:40:52;19.38;;;10.52;;
40659;SDS011;26753;45.544;9.232;2022-10-31T16:43:19;25.73;;;9.80;;
40659;SDS011;26753;45.544;9.232;2022-10-31T16:45:50;29.58;;;10.52;;
40659;SDS011;26753;45.544;9.232;2022-10-31T16:48:18;21.27;;;11.52;;
40659;SDS011;26753;45.544;9.232;2022-10-31T16:50:46;22.90;;;10.13;;
40659;SDS011;26753;45.544;9.232;2022-10-31T16:53:13;22.95;;;9.43;;
40659;SDS011;26753;45.544;9.232;2022-10-31T16:56:41;21.52;;;8.63;;
40659;SDS011;26753;45.544;9.232;2022-10-31T16:58:45;20.50;;;9.15;;
40659;SDS011;26753;45.544;9.232;2022-10-31T17:01:11;22.70;;;9.43;;
40659;SDS011;26753;45.544;9.232;2022-10-31T17:03:38;20.80;;;9.00;;
40659;SDS011;26753;45.544;9.232;2022-10-31T17:06:04;21.67;;;9.45;;
40659;SDS011;26753;45.544;9.232;2022-10-31T17:08:30;16.88;;;8.13;;
40659;SDS011;26753;45.544;9.232;2022-10-31T17:10:56;23.90;;;9.23;;
40659;SDS011;26753;45.544;9.232;2022-10-31T17:13:25;19.60;;;9.25;;
40659;SDS011;26753;45.544;9.232;2022-10-31T17:15:54;19.67;;;11.20;;
40659;SDS011;26753;45.544;9.232;2022-10-31T17:18:21;25.52;;;12.35;;
40659;SDS011;26753;45.544;9.232;2022-10-31T17:20:48;23.10;;;9.32;;
40659;SDS011;26753;45.544;9.232;2022-10-31T17:23:15;24.30;;;9.88;;
40659;SDS011;26753;45.544;9.232;2022-10-31T17:25:41;22.52;;;8.10;;
40659;SDS011;26753;45.544;9.232;2022-10-31T17:28:11;19.42;;;8.50;;